Time;durP1;ratioP1;P1;durP2;ratioP2;P2;SDS_P1;SDS_P2;PMS_P1;PMS_P2;Temp;Humidity;BMP_temperature;BMP_pressure;BME280_temperature;BME280_humidity;BME280_pressure;Samples;Min_cycle;Max_cycle;Signal;HPM_P1;HPM_P2
2022/10/13 00:06:54;;;;;;;3.37;2.50;;;;;;;;;;20551114;28;20204;-68
2022/10/13 00:17:00;;;;;;;3.67;2.20;;;;;;;;;;20535069;28;20217;-68
2022/10/13 00:27:02;;;;;;;3.17;2.17;;;;;;;;;;20548964;28;20208;-68
2022/10/13 00:37:04;;;;;;;3.23;2.20;;;12.90;99.90;;;;;;20532488;28;20216;-68
2022/10/13 00:47:06;;;;;;;3.07;2.03;;;;;;;;;;20516751;28;20240;-68
2022/10/13 00:57:09;;;;;;;4.70;1.80;;;;;;;;;;20610553;22;20235;-69
2022/10/13 01:07:13;;;;;;;2.67;1.63;;;;;;;;;;20708157;28;20767;-68
2022/10/13 01:17:43;;;;;;;3.93;2.17;;;12.60;99.90;;;;;;20723361;28;20243;-68
2022/10/13 01:28:24;;;;;;;3.53;1.97;;;12.70;99.90;;;;;;20707042;28;20211;-69
2022/10/13 01:38:26;;;;;;;3.10;1.93;;;;;;;;;;20706891;28;20227;-68
2022/10/13 01:48:28;;;;;;;2.53;1.83;;;;;;;;;;20705570;28;20210;-70
2022/10/13 01:58:32;;;;;;;2.93;1.73;;;;;;;;;;20705064;28;20245;-70
2022/10/13 02:08:45;;;;;;;3.43;1.63;;;12.50;99.90;;;;;;20714023;28;20225;-69
2022/10/13 02:18:47;;;;;;;2.30;1.50;;;;;;;;;;20720548;28;20783;-70
2022/10/13 02:28:48;;;;;;;4.07;2.10;;;;;;;;;;20703989;28;20266;-70
2022/10/13 02:38:50;;;;;;;4.37;2.03;;;;;;;;;;20699065;28;20776;-70
2022/10/13 02:48:52;;;;;;;3.33;2.20;;;;;;;;;;20703022;28;20207;-70
2022/10/13 02:58:54;;;;;;;2.93;1.97;;;;;;;;;;20734349;28;20219;-70
2022/10/13 03:08:56;;;;;;;3.73;2.10;;;;;;;;;;20716988;28;20227;-70
2022/10/13 03:18:58;;;;;;;4.80;1.80;;;;;;;;;;20699077;28;20745;-70
2022/10/13 03:29:00;;;;;;;7.60;2.13;;;12.00;99.90;;;;;;20715762;28;20617;-69
2022/10/13 03:39:02;;;;;;;2.67;1.97;;;12.00;99.90;;;;;;20725849;28;20211;-69
2022/10/13 03:49:04;;;;;;;2.67;1.80;;;11.90;99.90;;;;;;20719688;28;20226;-69
2022/10/13 03:59:07;;;;;;;4.00;2.33;;;;;;;;;;20714237;28;20227;-70
2022/10/13 04:09:09;;;;;;;4.17;2.30;;;;;;;;;;20693973;28;20219;-70
2022/10/13 04:19:11;;;;;;;4.23;2.73;;;;;;;;;;20683253;28;20564;-70
2022/10/13 04:29:14;;;;;;;4.33;2.10;;;;;;;;;;20724528;28;21039;-69
2022/10/13 04:39:15;;;;;;;4.07;2.33;;;;;;;;;;20688466;28;20242;-70
2022/10/13 04:49:17;;;;;;;3.40;2.00;;;;;;;;;;20695509;28;20227;-70
2022/10/13 04:59:19;;;;;;;3.53;2.00;;;;;;;;;;20711310;28;20271;-69
2022/10/13 05:09:21;;;;;;;3.67;2.27;;;;;;;;;;20710896;28;20752;-70
2022/10/13 05:19:24;;;;;;;3.07;1.87;;;;;;;;;;20725750;28;20239;-70
2022/10/13 05:29:26;;;;;;;3.03;1.47;;;;;;;;;;20701975;28;20683;-70
2022/10/13 05:39:29;;;;;;;2.80;2.00;;;;;;;;;;20736505;28;20262;-69
2022/10/13 05:49:31;;;;;;;4.07;1.77;;;;;;;;;;20723994;28;20274;-70
2022/10/13 05:59:38;;;;;;;4.40;2.30;;;11.60;99.90;;;;;;20724270;28;20265;-70
2022/10/13 06:09:41;;;;;;;3.00;2.10;;;;;;;;;;20691797;28;20752;-70
2022/10/13 06:19:44;;;;;;;3.37;1.87;;;;;;;;;;20705397;28;20246;-70
2022/10/13 06:29:45;;;;;;;12.23;2.40;;;;;;;;;;20691752;28;20250;-71
2022/10/13 06:39:47;;;;;;;3.47;2.13;;;;;;;;;;20704219;28;20227;-70
2022/10/13 06:49:49;;;;;;;5.43;2.30;;;;;;;;;;20719753;28;20215;-70
2022/10/13 06:59:52;;;;;;;3.43;2.13;;;;;;;;;;20757924;23;20226;-68
2022/10/13 07:09:54;;;;;;;5.70;2.07;;;;;;;;;;20840317;28;20341;-68
2022/10/13 07:19:55;;;;;;;3.47;2.23;;;;;;;;;;20796428;28;20302;-67
2022/10/13 07:29:57;;;;;;;2.73;1.93;;;;;;;;;;20782884;28;20210;-68
2022/10/13 07:39:59;;;;;;;2.63;1.90;;;;;;;;;;20837913;28;20218;-67
2022/10/13 07:50:05;;;;;;;3.70;1.93;;;;;;;;;;20826660;28;20720;-67
2022/10/13 08:00:07;;;;;;;3.23;2.20;;;11.90;99.90;;;;;;20873392;28;20260;-68
2022/10/13 08:10:14;;;;;;;3.03;2.23;;;;;;;;;;20890521;28;20279;-68
2022/10/13 08:20:16;;;;;;;3.53;2.30;;;;;;;;;;20850445;28;20300;-68
2022/10/13 08:30:18;;;;;;;4.07;2.30;;;;;;;;;;20790041;28;20227;-68
2022/10/13 08:40:22;;;;;;;4.13;2.10;;;11.90;99.90;;;;;;20801023;28;20650;-65
2022/10/13 08:50:24;;;;;;;3.90;2.40;;;;;;;;;;20805952;28;20283;-65
2022/10/13 09:00:28;;;;;;;4.37;2.27;;;;;;;;;;20884468;28;20241;-65
2022/10/13 09:10:30;;;;;;;3.63;2.27;;;;;;;;;;20885200;28;20222;-68
2022/10/13 09:20:33;;;;;;;6.17;2.83;;;;;;;;;;20850035;28;20535;-68
2022/10/13 09:30:41;;;;;;;4.27;2.87;;;12.20;99.90;;;;;;20852966;28;20275;-68
2022/10/13 09:40:55;;;;;;;5.07;3.20;;;;;;;;;;20831382;28;20321;-68
2022/10/13 09:50:57;;;;;;;7.10;3.73;;;;;;;;;;20844756;28;20209;-68
2022/10/13 10:00:59;;;;;;;5.23;3.50;;;;;;;;;;20849287;28;20218;-68
2022/10/13 10:11:02;;;;;;;8.27;4.20;;;;;;;;;;20881572;28;20209;-68
2022/10/13 10:21:23;;;;;;;5.10;3.60;;;;;;;;;;20717504;28;20219;-66
2022/10/13 10:31:46;;;;;;;6.60;3.90;;;;;;;;;;20729051;28;20219;-67
2022/10/13 10:41:53;;;;;;;6.63;3.90;;;;;;;;;;20738040;28;20231;-67
2022/10/13 10:51:55;;;;;;;7.23;3.87;;;;;;;;;;20733032;28;20215;-67
2022/10/13 11:02:06;;;;;;;9.03;3.50;;;;;;;;;;20699929;28;20298;-67
2022/10/13 11:12:20;;;;;;;7.93;4.37;;;13.20;99.90;;;;;;20714900;28;20223;-67
2022/10/13 11:22:24;;;;;;;8.53;4.30;;;;;;;;;;20731060;28;20226;-67
2022/10/13 11:32:26;;;;;;;8.27;4.20;;;;;;;;;;20730149;28;20207;-67
2022/10/13 11:42:35;;;;;;;7.47;4.40;;;13.60;99.90;;;;;;20712027;28;20259;-67
2022/10/13 11:52:47;;;;;;;5.90;3.30;;;;;;;;;;20696652;28;20207;-67
2022/10/13 12:02:51;;;;;;;6.47;4.63;;;14.00;99.90;;;;;;20694741;28;20215;-67
2022/10/13 12:12:55;;;;;;;6.60;3.97;;;;;;;;;;20696524;28;20261;-66
2022/10/13 12:22:57;;;;;;;5.13;3.67;;;;;;;;;;20780624;28;20293;-67
2022/10/13 12:33:00;;;;;;;6.80;3.80;;;14.00;99.90;;;;;;20771661;28;20687;-67
2022/10/13 12:43:03;;;;;;;5.77;3.73;;;;;;;;;;20769444;28;20215;-67
2022/10/13 12:53:07;;;;;;;5.73;3.80;;;14.30;99.90;;;;;;20764521;28;20690;-67
2022/10/13 13:03:21;;;;;;;7.93;3.83;;;;;;;;;;20843774;22;20290;-75
2022/10/13 13:13:23;;;;;;;7.57;4.13;;;14.30;99.90;;;;;;20984853;28;20286;-74
2022/10/13 13:23:32;;;;;;;5.90;4.07;;;;;;;;;;20950006;28;20290;-75
2022/10/13 13:33:34;;;;;;;5.17;3.33;;;;;;;;;;20966673;28;20217;-75
2022/10/13 13:43:37;;;;;;;6.40;3.53;;;14.40;99.90;;;;;;20947916;28;20673;-75
2022/10/13 13:53:39;;;;;;;7.00;2.90;;;;;;;;;;20948556;28;20221;-76
2022/10/13 14:03:41;;;;;;;5.20;2.67;;;;;;;;;;20972937;28;20217;-76
2022/10/13 14:13:43;;;;;;;4.23;2.43;;;;;;;;;;20952848;28;20297;-77
2022/10/13 14:23:47;;;;;;;5.33;3.20;;;;;;;;;;20964054;28;20581;-76
2022/10/13 14:33:49;;;;;;;4.13;2.77;;;;;;;;;;20993851;28;20225;-76
2022/10/13 14:43:55;;;;;;;5.77;2.77;;;14.80;99.90;;;;;;20957649;28;20225;-76
2022/10/13 14:53:57;;;;;;;3.30;2.30;;;;;;;;;;20965249;28;20224;-76
2022/10/13 15:04:02;;;;;;;3.97;2.60;;;;;;;;;;21001834;28;20687;-75
2022/10/13 15:14:06;;;;;;;3.90;2.37;;;;;;;;;;20973564;28;20228;-75
2022/10/13 15:24:10;;;;;;;5.87;2.63;;;14.60;99.90;;;;;;20972579;28;20841;-76
2022/10/13 15:34:11;;;;;;;3.43;2.37;;;;;;;;;;20990928;28;20247;-76
2022/10/13 15:44:15;;;;;;;4.83;2.67;;;;;;;;;;20978375;28;20221;-76
2022/10/13 15:54:17;;;;;;;3.60;2.60;;;;;;;;;;21004774;28;20221;-73
2022/10/13 16:04:19;;;;;;;3.37;1.90;;;;;;;;;;20985440;28;20781;-74
2022/10/13 16:14:20;;;;;;;3.03;1.87;;;;;;;;;;20968950;28;20233;-74
2022/10/13 16:24:22;;;;;;;5.33;4.10;;;;;;;;;;20957464;28;20247;-74
2022/10/13 16:34:24;;;;;;;4.77;3.03;;;;;;;;;;20937862;28;20225;-76
2022/10/13 16:44:26;;;;;;;3.97;2.77;;;;;;;;;;20976602;28;20213;-74
2022/10/13 16:54:32;;;;;;;15.90;10.10;;;;;;;;;;20973339;28;20236;-73
2022/10/13 17:04:35;;;;;;;11.37;5.70;;;;;;;;;;20993763;28;20283;-73
2022/10/13 17:14:38;;;;;;;6.20;3.27;;;;;;;;;;20956373;28;20237;-73
2022/10/13 17:24:46;;;;;;;6.50;4.27;;;;;;;;;;20955998;28;20565;-72
2022/10/13 17:34:48;;;;;;;4.80;3.47;;;;;;;;;;20947799;28;20225;-75
2022/10/13 17:44:50;;;;;;;3.70;2.40;;;;;;;;;;20955042;28;20262;-75
2022/10/13 17:54:52;;;;;;;7.67;4.07;;;;;;;;;;20960180;28;20229;-73
2022/10/13 18:04:53;;;;;;;7.40;3.17;;;;;;;;;;20916161;28;20244;-74
2022/10/13 18:14:57;;;;;;;3.23;2.23;;;;;;;;;;20882011;28;20280;-73
2022/10/13 18:24:59;;;;;;;4.73;3.63;;;;;;;;;;20943432;28;20294;-73
2022/10/13 18:35:01;;;;;;;4.83;3.03;;;;;;;;;;20948809;28;20294;-75
2022/10/13 18:45:03;;;;;;;5.43;2.80;;;;;;;;;;20936769;28;20262;-74
2022/10/13 18:55:05;;;;;;;5.30;2.97;;;;;;;;;;20950293;28;20295;-74
2022/10/13 19:05:08;;;;;;;3.53;2.60;;;;;;;;;;20958256;23;20230;-67
2022/10/13 19:15:10;;;;;;;4.53;2.57;;;;;;;;;;20974392;28;20229;-67
2022/10/13 19:25:12;;;;;;;6.50;2.33;;;;;;;;;;20942076;28;20209;-67
2022/10/13 19:35:14;;;;;;;2.90;2.17;;;;;;;;;;20946939;28;20290;-67
2022/10/13 19:45:18;;;;;;;5.37;2.20;;;;;;;;;;20970676;28;20248;-68
2022/10/13 19:55:20;;;;;;;3.03;1.90;;;;;;;;;;20955796;28;20294;-68
2022/10/13 20:05:22;;;;;;;3.70;1.97;;;;;;;;;;20937053;28;20229;-67
2022/10/13 20:15:24;;;;;;;2.93;2.00;;;11.00;99.90;;;;;;20952928;28;20638;-67
2022/10/13 20:25:34;;;;;;;4.90;2.33;;;;;;;;;;20936085;28;20778;-67
2022/10/13 20:35:37;;;;;;;3.87;2.37;;;;;;;;;;20968148;28;20229;-67
2022/10/13 20:45:39;;;;;;;4.77;2.50;;;;;;;;;;20953562;28;20258;-67
2022/10/13 20:55:43;;;;;;;2.80;1.97;;;;;;;;;;20937410;28;20263;-67
2022/10/13 21:05:49;;;;;;;3.73;2.50;;;;;;;;;;20936132;28;20286;-67
2022/10/13 21:15:51;;;;;;;3.40;2.43;;;;;;;;;;20943658;28;20247;-67
2022/10/13 21:25:54;;;;;;;3.37;2.10;;;;;;;;;;20934115;28;20217;-68
2022/10/13 21:35:56;;;;;;;3.33;2.17;;;;;;;;;;20952517;28;20275;-68
2022/10/13 21:46:14;;;;;;;3.47;1.90;;;14.10;99.90;;;;;;20950368;28;20205;-67
2022/10/13 21:56:20;;;;;;;4.10;1.77;;;14.10;99.90;;;;;;20901103;28;20283;-67
2022/10/13 22:06:22;;;;;;;3.00;1.80;;;;;;;;;;20870048;28;20279;-68
2022/10/13 22:16:27;;;;;;;4.07;1.90;;;14.10;99.90;;;;;;20902644;28;20241;-67
2022/10/13 22:26:31;;;;;;;2.97;1.80;;;;;;;;;;20898709;28;20638;-68
2022/10/13 22:36:33;;;;;;;2.03;1.47;;;14.00;99.90;;;;;;20902131;28;20234;-68
2022/10/13 22:46:37;;;;;;;3.73;1.50;;;;;;;;;;20884725;28;20267;-67
2022/10/13 22:56:39;;;;;;;3.93;1.60;;;14.00;99.90;;;;;;20882584;28;20642;-67
2022/10/13 23:06:41;;;;;;;2.17;1.37;;;;;;;;;;20881355;28;20214;-67
2022/10/13 23:16:43;;;;;;;2.60;1.70;;;;;;;;;;20914298;28;20291;-67
2022/10/13 23:26:45;;;;;;;2.90;2.10;;;;;;;;;;20895317;28;20597;-67
2022/10/13 23:36:47;;;;;;;2.60;1.80;;;;;;;;;;20944028;28;20213;-67
2022/10/13 23:46:49;;;;;;;2.47;1.50;;;;;;;;;;20965344;28;20217;-67
2022/10/13 23:56:51;;;;;;;2.53;1.90;;;;;;;;;;20946575;28;20213;-67
